createdAt,value
2019-01-06T00:02:16.760Z,51.70
2019-01-06T00:05:29.695Z,51.60
2019-01-06T00:08:40.560Z,51.40
2019-01-06T00:12:04.938Z,51.50
2019-01-06T00:15:20.119Z,51.50
2019-01-06T00:18:30.240Z,51.50
2019-01-06T00:21:57.637Z,51.50
2019-01-06T00:25:10.400Z,51.40
2019-01-06T00:28:18.596Z,51.30
2019-01-06T00:31:30.877Z,51.50
2019-01-06T00:34:49.833Z,51.60
2019-01-06T00:37:53.882Z,51.80
2019-01-06T00:41:04.778Z,51.80
2019-01-06T00:44:29.743Z,51.70
2019-01-06T00:47:50.750Z,51.70
2019-01-06T00:51:05.822Z,51.70
2019-01-06T00:54:23.989Z,51.80
2019-01-06T00:57:34.754Z,51.80
2019-01-06T01:00:54.031Z,51.80
2019-01-06T01:04:06.521Z,51.70
2019-01-06T01:07:20.884Z,51.60
2019-01-06T01:10:29.577Z,51.60
2019-01-06T01:13:41.097Z,51.70
2019-01-06T01:16:52.401Z,51.50
2019-01-06T01:20:22.754Z,51.70
2019-01-06T01:23:34.542Z,51.70
2019-01-06T01:26:55.562Z,51.50
2019-01-06T01:30:11.937Z,51.60
2019-01-06T01:33:23.935Z,51.50
2019-01-06T01:36:48.636Z,51.70
2019-01-06T01:40:06.463Z,51.80
2019-01-06T01:43:17.259Z,51.70
2019-01-06T01:46:26.127Z,51.70
2019-01-06T01:49:56.499Z,51.70
2019-01-06T01:53:14.643Z,51.70
2019-01-06T01:56:32.490Z,51.70
2019-01-06T01:59:56.666Z,51.90
2019-01-06T02:03:23.924Z,51.90
2019-01-06T02:06:34.272Z,52.00
2019-01-06T02:09:55.302Z,52.10
2019-01-06T02:13:07.099Z,52.10
2019-01-06T02:16:19.102Z,52.30
2019-01-06T02:19:30.629Z,52.10
2019-01-06T02:22:48.434Z,52.10
2019-01-06T02:26:09.500Z,52.20
2019-01-06T02:29:21.644Z,52.30
2019-01-06T02:32:33.992Z,52.30
2019-01-06T02:35:45.071Z,52.30
2019-01-06T02:38:55.227Z,52.30
2019-01-06T02:42:11.827Z,52.30
2019-01-06T02:45:29.169Z,52.30
2019-01-06T02:48:48.407Z,52.60
2019-01-06T02:52:15.060Z,52.60
2019-01-06T02:55:26.250Z,52.70
2019-01-06T02:58:42.627Z,52.80
2019-01-06T03:02:01.750Z,52.80
2019-01-06T03:05:12.675Z,52.70
2019-01-06T03:08:26.732Z,52.60
2019-01-06T03:11:44.325Z,52.60
2019-01-06T03:14:54.097Z,52.70
2019-01-06T03:18:22.764Z,52.60
2019-01-06T03:21:41.742Z,52.60
2019-01-06T03:24:52.760Z,52.80
2019-01-06T03:28:09.462Z,52.80
2019-01-06T03:31:40.619Z,52.70
2019-01-06T03:35:11.783Z,52.50
2019-01-06T03:38:26.335Z,52.70
2019-01-06T03:41:42.176Z,52.80
2019-01-06T03:44:57.209Z,52.50
2019-01-06T03:48:24.505Z,52.40
2019-01-06T03:51:45.862Z,52.40
2019-01-06T03:55:06.689Z,52.40
2019-01-06T03:58:25.253Z,52.50
2019-01-06T04:01:41.629Z,52.50
2019-01-06T04:04:45.338Z,52.40
2019-01-06T04:07:56.659Z,52.50
2019-01-06T04:11:23.892Z,52.50
2019-01-06T04:14:46.886Z,52.70
2019-01-06T04:18:14.110Z,52.70
2019-01-06T04:21:32.631Z,52.90
2019-01-06T04:24:45.795Z,53.00
2019-01-06T04:27:59.543Z,52.90
2019-01-06T04:31:11.734Z,52.90
2019-01-06T04:34:39.501Z,53.20
2019-01-06T04:38:03.790Z,53.30
2019-01-06T04:41:19.902Z,53.40
2019-01-06T04:44:36.201Z,53.30
2019-01-06T04:47:50.866Z,53.20
2019-01-06T04:51:21.743Z,53.10
2019-01-06T04:54:32.684Z,53.20
2019-01-06T05:19:31.923Z,53.30
2019-01-06T05:24:16.371Z,53.20
2019-01-06T05:26:35.743Z,53.20
2019-01-06T05:30:22.724Z,53.40
2019-01-06T05:33:37.108Z,53.50
2019-01-06T05:36:47.612Z,53.40
2019-01-06T05:40:06.771Z,53.30
2019-01-06T05:43:58.834Z,53.10
2019-01-06T05:47:39.430Z,53.30
2019-01-06T05:50:45.966Z,53.10
2019-01-06T05:53:59.391Z,53.00
2019-01-06T05:57:22.664Z,53.10
2019-01-06T06:00:33.944Z,53.10
2019-01-06T06:03:56.903Z,53.00
2019-01-06T06:07:47.653Z,53.30
2019-01-06T06:11:02.849Z,53.10
2019-01-06T06:18:05.529Z,53.00
2019-01-06T06:45:21.592Z,52.70
2019-01-06T06:48:41.588Z,52.90
2019-01-06T06:52:05.120Z,52.80
2019-01-06T06:55:41.509Z,52.80
2019-01-06T06:59:19.049Z,52.70
2019-01-06T07:02:55.069Z,52.80
2019-01-06T07:06:24.053Z,52.90
2019-01-06T07:09:47.739Z,52.70
2019-01-06T07:17:01.220Z,52.70
2019-01-06T07:37:24.617Z,52.30
2019-01-06T07:37:33.682Z,52.10
2019-01-06T08:19:28.649Z,51.50
2019-01-06T08:38:14.747Z,51.90
2019-01-06T08:46:11.798Z,51.70
2019-01-06T08:53:34.865Z,51.30
2019-01-06T09:20:47.938Z,51.00
2019-01-06T09:35:25.124Z,51.40
2019-01-06T09:54:18.258Z,51.50
2019-01-06T09:57:56.184Z,51.40
2019-01-06T10:01:22.736Z,51.20
2019-01-06T12:45:15.132Z,52.60
